Terminal Aerodrome Forecast
Issued by NWS Wakefield, VA

Home | Current Version | Previous Version | Text Only | Print | Product List | Glossary On
Versions: 1 2 3 4 5 6 7 8 9 10 11 12 13
000
FTUS41 KAKQ 290500
TAFRIC
TAF
KRIC 290530Z 2906/3006 VRB03KT 5SM -SHRA BR SCT030 OVC080
     FM291200 04007KT 4SM -RA BR BKN009 OVC020
     FM291900 04006KT 6SM -RA BR BKN012 OVC025=

USA.gov is the U.S. government's official web portal to all federal, state and local government web resources and services.